createdAt,value
2023-02-26T00:01:21.374Z,0.90
2023-02-26T00:04:06.202Z,0.70
2023-02-26T00:06:54.677Z,0.70
2023-02-26T00:09:39.106Z,0.73
2023-02-26T00:12:22.893Z,0.88
2023-02-26T00:15:06.378Z,0.68
2023-02-26T00:17:53.007Z,0.73
2023-02-26T00:20:37.167Z,0.90
2023-02-26T00:23:20.028Z,0.50
2023-02-26T00:26:02.651Z,0.55
2023-02-26T00:28:45.635Z,0.60
2023-02-26T00:31:28.675Z,0.73
2023-02-26T00:34:12.958Z,0.80
2023-02-26T00:37:04.754Z,0.70
2023-02-26T00:39:51.692Z,0.80
2023-02-26T00:42:35.576Z,0.55
2023-02-26T00:45:18.422Z,0.70
2023-02-26T00:48:08.093Z,0.60
2023-02-26T00:50:56.700Z,1.23
2023-02-26T00:53:45.599Z,1.00
2023-02-26T00:56:28.232Z,0.80
2023-02-26T00:59:10.882Z,0.95
2023-02-26T01:01:54.002Z,1.63
2023-02-26T01:04:37.003Z,1.30
2023-02-26T01:07:21.058Z,2.85
2023-02-26T01:10:05.620Z,2.10
2023-02-26T01:12:48.561Z,2.00
2023-02-26T01:15:31.461Z,2.08
2023-02-26T01:18:15.231Z,1.50
2023-02-26T01:21:01.452Z,1.38
2023-02-26T01:23:46.661Z,0.80
2023-02-26T01:26:30.814Z,1.25
2023-02-26T01:29:13.613Z,0.88
2023-02-26T01:32:00.716Z,1.17
2023-02-26T01:34:45.927Z,1.00
2023-02-26T01:37:30.355Z,1.10
2023-02-26T01:40:33.614Z,1.33
2023-02-26T01:43:20.814Z,0.90
2023-02-26T01:46:06.291Z,0.90
2023-02-26T01:48:51.244Z,1.10
2023-02-26T01:51:45.650Z,0.95
2023-02-26T01:54:30.967Z,0.70
2023-02-26T01:57:16.461Z,0.75
2023-02-26T02:00:00.525Z,0.77
2023-02-26T02:02:43.462Z,0.73
2023-02-26T02:05:28.608Z,0.60
2023-02-26T02:08:12.052Z,0.50
2023-02-26T02:10:54.924Z,0.70
2023-02-26T02:13:42.736Z,0.52
2023-02-26T02:16:31.578Z,0.50
2023-02-26T02:19:25.301Z,0.70
2023-02-26T02:22:21.068Z,0.60
2023-02-26T02:25:12.289Z,0.60
2023-02-26T02:27:59.933Z,0.60
2023-02-26T02:30:53.390Z,0.60
2023-02-26T02:33:40.713Z,0.60
2023-02-26T02:36:29.660Z,0.60
2023-02-26T02:39:14.964Z,0.73
2023-02-26T02:41:59.913Z,0.70
2023-02-26T02:44:44.526Z,0.60
2023-02-26T02:47:29.940Z,0.80
2023-02-26T02:50:14.439Z,0.60
2023-02-26T02:52:59.483Z,0.80
2023-02-26T02:55:44.288Z,0.90
2023-02-26T02:58:30.184Z,0.68
2023-02-26T03:01:14.824Z,0.77
2023-02-26T03:04:00.923Z,0.88
2023-02-26T03:06:49.952Z,0.60
2023-02-26T03:09:34.522Z,0.60
2023-02-26T03:12:17.122Z,0.60
2023-02-26T03:15:00.673Z,0.77
2023-02-26T03:17:47.650Z,0.70
2023-02-26T03:20:34.544Z,0.63
2023-02-26T03:23:21.515Z,0.77
2023-02-26T03:26:11.644Z,0.70
2023-02-26T03:28:56.414Z,0.70
2023-02-26T03:31:44.020Z,0.70
2023-02-26T03:34:28.461Z,0.47
2023-02-26T03:37:17.322Z,0.60
2023-02-26T03:40:05.006Z,0.60
2023-02-26T03:42:50.456Z,0.55
2023-02-26T03:45:34.844Z,0.63
2023-02-26T03:48:20.419Z,0.60
2023-02-26T03:51:05.507Z,0.70
2023-02-26T03:54:14.111Z,0.70
2023-02-26T03:56:58.554Z,0.65
2023-02-26T04:00:10.142Z,0.35
2023-02-26T04:03:01.458Z,0.70
2023-02-26T04:05:45.998Z,0.57
2023-02-26T04:08:30.023Z,0.50
2023-02-26T04:11:17.186Z,0.60
2023-02-26T04:14:00.099Z,0.57
2023-02-26T04:16:44.338Z,0.45
2023-02-26T04:19:27.189Z,0.52
2023-02-26T04:22:10.126Z,0.50
2023-02-26T04:24:52.863Z,0.70
2023-02-26T04:27:36.939Z,0.60
2023-02-26T04:30:19.911Z,0.68
2023-02-26T04:33:02.527Z,0.80
2023-02-26T04:35:45.738Z,0.70
2023-02-26T04:38:28.360Z,0.52
2023-02-26T04:41:11.066Z,0.70
2023-02-26T04:43:55.086Z,0.70
2023-02-26T04:46:46.620Z,0.73
2023-02-26T04:49:29.324Z,0.60
2023-02-26T04:52:12.051Z,0.65
2023-02-26T04:54:55.742Z,0.60
2023-02-26T04:57:38.442Z,0.60
2023-02-26T05:00:22.942Z,0.60
2023-02-26T05:03:05.562Z,0.60
2023-02-26T05:05:48.798Z,0.70
2023-02-26T05:08:31.394Z,0.40
2023-02-26T05:11:14.063Z,0.52
2023-02-26T05:13:56.704Z,0.57
2023-02-26T05:16:40.871Z,0.70
2023-02-26T05:19:24.186Z,0.50
2023-02-26T05:22:06.825Z,0.57
2023-02-26T05:24:50.224Z,0.50
2023-02-26T05:27:32.827Z,0.60
2023-02-26T05:30:16.347Z,0.50
2023-02-26T05:33:00.752Z,0.60
2023-02-26T05:35:43.344Z,0.63
2023-02-26T05:38:26.006Z,0.77
2023-02-26T05:41:08.677Z,0.70
2023-02-26T05:43:51.427Z,0.40
2023-02-26T05:46:34.290Z,0.60
2023-02-26T05:49:18.362Z,0.52
2023-02-26T05:52:00.968Z,0.60
2023-02-26T05:54:43.586Z,0.70
2023-02-26T05:57:26.142Z,0.60
2023-02-26T06:00:09.662Z,0.60
2023-02-26T06:02:58.165Z,0.70
2023-02-26T06:05:42.114Z,0.70
2023-02-26T06:08:24.882Z,0.75
2023-02-26T06:11:07.516Z,0.65
2023-02-26T06:13:50.316Z,0.60
2023-02-26T06:16:33.294Z,0.80
2023-02-26T06:19:15.917Z,0.68
2023-02-26T06:21:59.882Z,1.00
2023-02-26T06:24:42.435Z,0.60
2023-02-26T06:27:25.160Z,0.60
2023-02-26T06:30:08.548Z,0.60
2023-02-26T06:32:51.152Z,0.70
2023-02-26T06:35:33.725Z,0.70
2023-02-26T06:38:17.914Z,0.80
2023-02-26T06:41:00.552Z,0.60
2023-02-26T06:43:43.220Z,0.88
2023-02-26T06:46:26.346Z,0.63
2023-02-26T06:49:09.340Z,0.80
2023-02-26T06:51:52.161Z,0.70
2023-02-26T06:54:36.129Z,0.60
2023-02-26T06:57:18.742Z,0.73
2023-02-26T07:00:02.369Z,0.73
2023-02-26T07:02:44.986Z,0.57
2023-02-26T07:05:27.588Z,0.82
2023-02-26T07:08:10.252Z,0.70
2023-02-26T07:10:54.194Z,0.70
2023-02-26T07:13:36.853Z,0.80
2023-02-26T07:16:19.578Z,0.70
2023-02-26T07:19:02.251Z,0.70
2023-02-26T07:21:44.925Z,0.50
2023-02-26T07:24:27.522Z,0.70
2023-02-26T07:27:11.506Z,0.82
2023-02-26T07:29:54.134Z,0.90
2023-02-26T07:32:37.137Z,0.70
2023-02-26T07:35:19.981Z,0.82
2023-02-26T07:38:02.793Z,0.75
2023-02-26T07:40:45.370Z,0.82
2023-02-26T07:43:29.368Z,1.10
2023-02-26T07:46:12.007Z,0.70
2023-02-26T07:48:54.603Z,0.90
2023-02-26T07:51:37.721Z,0.80
2023-02-26T07:54:20.580Z,0.82
2023-02-26T07:57:03.478Z,0.90
2023-02-26T07:59:47.500Z,0.68
2023-02-26T08:02:30.209Z,0.90
2023-02-26T08:05:12.852Z,0.95
2023-02-26T08:07:55.476Z,0.80
2023-02-26T08:10:41.100Z,0.82
2023-02-26T08:13:24.850Z,1.02
2023-02-26T08:16:08.841Z,1.00
2023-02-26T08:18:51.516Z,0.95
2023-02-26T08:21:34.110Z,0.93
2023-02-26T08:24:16.934Z,1.00
2023-02-26T08:26:59.606Z,0.80
2023-02-26T08:29:42.807Z,0.90
2023-02-26T08:32:28.185Z,0.90
2023-02-26T08:35:11.452Z,0.70
2023-02-26T08:37:54.489Z,0.77
2023-02-26T08:40:37.279Z,0.68
2023-02-26T08:43:19.964Z,0.90
2023-02-26T08:46:02.557Z,0.70
2023-02-26T08:48:46.596Z,0.80
2023-02-26T08:51:29.556Z,0.68
2023-02-26T08:54:12.194Z,0.80
2023-02-26T08:56:55.911Z,0.95
2023-02-26T08:59:38.565Z,0.73
2023-02-26T09:02:21.204Z,0.82
2023-02-26T09:05:05.564Z,0.60
2023-02-26T09:07:48.136Z,0.60
2023-02-26T09:10:30.766Z,0.60
2023-02-26T09:13:13.340Z,0.60
2023-02-26T09:15:56.116Z,0.50
2023-02-26T09:18:39.450Z,0.50
2023-02-26T09:21:23.431Z,0.50
2023-02-26T09:24:06.174Z,0.63
2023-02-26T09:26:48.793Z,0.43
2023-02-26T09:29:31.383Z,0.50
2023-02-26T09:32:14.107Z,0.57
2023-02-26T09:34:56.727Z,0.50
2023-02-26T09:37:41.087Z,0.60
2023-02-26T09:40:26.746Z,0.70
2023-02-26T09:43:19.780Z,0.80
2023-02-26T09:46:04.832Z,0.60
2023-02-26T09:48:48.836Z,0.60
2023-02-26T09:51:32.417Z,0.60
2023-02-26T09:54:18.861Z,0.50
2023-02-26T09:57:01.928Z,0.50
2023-02-26T09:59:44.600Z,0.57
2023-02-26T10:02:32.456Z,0.80
2023-02-26T10:05:19.269Z,0.93
2023-02-26T10:08:03.056Z,0.50
2023-02-26T10:10:49.969Z,0.40
2023-02-26T10:13:57.183Z,0.70
2023-02-26T10:16:44.257Z,0.75
2023-02-26T10:19:28.975Z,0.70
2023-02-26T10:22:17.205Z,0.60
2023-02-26T10:25:02.617Z,0.60
2023-02-26T10:27:51.456Z,0.68
2023-02-26T10:30:37.163Z,0.77
2023-02-26T10:33:21.882Z,0.60
2023-02-26T10:36:07.019Z,0.57
2023-02-26T10:38:51.061Z,0.70
2023-02-26T10:41:37.662Z,0.70
2023-02-26T10:44:26.322Z,0.63
2023-02-26T10:47:13.481Z,0.60
2023-02-26T10:49:57.802Z,0.80
2023-02-26T10:52:42.572Z,0.85
2023-02-26T10:55:28.754Z,0.68
2023-02-26T10:58:13.262Z,0.60
2023-02-26T11:00:57.737Z,0.60
2023-02-26T11:03:43.383Z,0.85
2023-02-26T11:06:28.781Z,0.52
2023-02-26T11:09:17.800Z,0.70
2023-02-26T11:12:05.245Z,0.60
2023-02-26T11:14:48.826Z,0.63
2023-02-26T11:17:33.395Z,0.50
2023-02-26T11:20:19.285Z,0.50
2023-02-26T11:23:03.422Z,0.70
2023-02-26T11:25:46.232Z,0.50
2023-02-26T11:28:31.916Z,0.80
2023-02-26T11:31:17.196Z,0.70
2023-02-26T11:34:04.795Z,0.88
2023-02-26T11:36:47.396Z,0.80
2023-02-26T11:39:31.015Z,0.60
2023-02-26T11:42:13.658Z,0.60
2023-02-26T11:44:56.669Z,0.70
2023-02-26T11:47:39.315Z,0.90
2023-02-26T11:50:25.863Z,0.73
2023-02-26T11:53:16.405Z,0.90
2023-02-26T11:56:03.246Z,1.00
2023-02-26T11:58:47.234Z,0.90
2023-02-26T12:01:30.814Z,0.70
2023-02-26T12:04:14.479Z,0.80
2023-02-26T12:06:58.521Z,0.77
2023-02-26T12:09:41.140Z,0.77
2023-02-26T12:12:30.832Z,0.80
2023-02-26T12:15:21.463Z,1.08
2023-02-26T12:18:15.707Z,0.90
2023-02-26T12:21:02.740Z,0.70
2023-02-26T12:23:57.920Z,0.73
2023-02-26T12:26:41.989Z,0.77
2023-02-26T12:29:40.049Z,0.95
2023-02-26T12:32:29.568Z,0.88
2023-02-26T12:35:22.452Z,0.50
2023-02-26T12:38:10.341Z,0.60
2023-02-26T12:41:08.716Z,0.80
2023-02-26T12:43:54.015Z,0.93
2023-02-26T12:46:52.053Z,0.68
2023-02-26T12:49:49.484Z,0.65
2023-02-26T12:52:42.507Z,0.75
2023-02-26T12:55:29.351Z,0.77
2023-02-26T12:58:19.484Z,0.63
2023-02-26T13:01:14.475Z,0.75
2023-02-26T13:04:19.082Z,0.70
2023-02-26T13:07:10.253Z,0.70
2023-02-26T13:09:57.303Z,0.60
2023-02-26T13:12:44.422Z,0.60
2023-02-26T13:15:37.856Z,0.90
2023-02-26T13:18:28.093Z,0.60
2023-02-26T13:21:14.840Z,0.63
2023-02-26T13:23:58.682Z,0.63
2023-02-26T13:26:42.163Z,0.65
2023-02-26T13:29:26.043Z,0.63
2023-02-26T13:32:13.738Z,0.55
2023-02-26T13:34:59.041Z,0.60
2023-02-26T13:37:43.237Z,0.70
2023-02-26T13:40:34.367Z,0.60
2023-02-26T13:43:32.109Z,0.60
2023-02-26T13:46:23.825Z,0.85
2023-02-26T13:49:10.053Z,0.73
2023-02-26T13:51:55.266Z,0.70
2023-02-26T13:54:47.085Z,0.70
2023-02-26T13:57:37.534Z,0.57
2023-02-26T14:00:27.573Z,0.57
2023-02-26T14:03:13.967Z,0.60
2023-02-26T14:05:59.969Z,0.63
2023-02-26T14:08:46.622Z,0.77
2023-02-26T14:11:39.999Z,0.70
2023-02-26T14:14:27.138Z,0.40
2023-02-26T14:17:30.986Z,0.57
2023-02-26T14:20:18.804Z,0.57
2023-02-26T14:23:20.738Z,0.70
2023-02-26T14:26:07.315Z,0.50
2023-02-26T14:28:57.596Z,0.65
2023-02-26T14:31:55.308Z,0.68
2023-02-26T14:34:40.561Z,0.50
2023-02-26T14:37:24.557Z,0.50
2023-02-26T14:40:11.533Z,0.60
2023-02-26T14:42:57.162Z,0.63
2023-02-26T14:45:41.218Z,0.55
2023-02-26T14:48:29.332Z,0.70
2023-02-26T14:51:23.923Z,0.60
2023-02-26T14:54:30.550Z,0.70
2023-02-26T14:57:19.711Z,0.60
2023-02-26T15:00:20.076Z,0.90
2023-02-26T15:03:15.405Z,0.70
2023-02-26T15:06:06.193Z,0.65
2023-02-26T15:08:55.901Z,0.70
2023-02-26T15:11:56.824Z,0.70
2023-02-26T15:14:46.603Z,0.70
2023-02-26T15:17:40.060Z,0.70
2023-02-26T15:20:27.687Z,0.80
2023-02-26T15:23:26.993Z,0.80
2023-02-26T15:26:15.281Z,0.80
2023-02-26T15:28:58.886Z,0.60
2023-02-26T15:31:43.172Z,0.90
2023-02-26T15:34:27.226Z,0.50
2023-02-26T15:37:19.243Z,0.50
2023-02-26T15:40:04.801Z,0.70
2023-02-26T15:42:51.007Z,0.75
2023-02-26T15:45:36.096Z,0.80
2023-02-26T15:48:21.630Z,0.60
2023-02-26T15:51:07.369Z,0.82
2023-02-26T15:53:51.446Z,1.20
2023-02-26T15:56:36.790Z,0.80
2023-02-26T15:59:20.596Z,0.90
2023-02-26T16:02:03.907Z,1.17
2023-02-26T16:04:46.675Z,0.70
2023-02-26T16:07:30.954Z,0.65
2023-02-26T16:10:16.946Z,0.70
2023-02-26T16:13:00.548Z,0.70
2023-02-26T16:15:43.642Z,0.60
2023-02-26T16:18:26.729Z,0.60
2023-02-26T16:21:10.315Z,0.70
2023-02-26T16:23:55.361Z,0.90
2023-02-26T16:26:39.995Z,0.70
2023-02-26T16:29:31.690Z,1.00
2023-02-26T16:32:15.373Z,0.80
2023-02-26T16:34:58.823Z,0.70
2023-02-26T16:37:44.605Z,0.80
2023-02-26T16:40:29.554Z,0.80
2023-02-26T16:43:33.395Z,0.68
2023-02-26T16:46:17.670Z,0.77
2023-02-26T16:49:01.862Z,0.60
2023-02-26T16:51:44.540Z,0.60
2023-02-26T16:54:28.232Z,0.98
2023-02-26T16:57:17.973Z,1.88
2023-02-26T17:00:02.418Z,1.13
2023-02-26T17:02:47.474Z,0.80
2023-02-26T17:05:32.008Z,1.08
2023-02-26T17:08:16.493Z,0.90
2023-02-26T17:11:02.278Z,0.82
2023-02-26T17:13:46.269Z,0.70
2023-02-26T17:16:29.512Z,0.70
2023-02-26T17:19:12.427Z,0.80
2023-02-26T17:21:57.488Z,0.80
2023-02-26T17:24:44.158Z,0.70
2023-02-26T17:27:29.344Z,0.70
2023-02-26T17:30:16.275Z,1.08
2023-02-26T17:32:59.104Z,0.90
2023-02-26T17:35:41.824Z,0.90
2023-02-26T17:38:24.506Z,1.00
2023-02-26T17:41:07.281Z,1.00
2023-02-26T17:43:50.057Z,1.00
2023-02-26T17:46:34.035Z,0.88
2023-02-26T17:49:16.674Z,1.13
2023-02-26T17:51:59.367Z,1.10
2023-02-26T17:54:42.064Z,1.00
2023-02-26T17:57:26.593Z,0.90
2023-02-26T18:00:13.070Z,1.00
2023-02-26T18:02:59.288Z,1.17
2023-02-26T18:05:43.165Z,1.33
2023-02-26T18:08:26.858Z,1.48
2023-02-26T18:11:11.891Z,1.38
2023-02-26T18:13:55.279Z,1.40
2023-02-26T18:16:40.089Z,1.80
2023-02-26T18:19:24.146Z,1.95
2023-02-26T18:22:07.235Z,1.92
2023-02-26T18:24:49.856Z,2.90
2023-02-26T18:27:32.510Z,2.17
2023-02-26T18:30:18.797Z,3.10
2023-02-26T18:33:01.663Z,2.67
2023-02-26T18:35:47.120Z,2.50
2023-02-26T18:38:29.823Z,1.98
2023-02-26T18:41:12.519Z,2.00
2023-02-26T18:43:55.120Z,1.63
2023-02-26T18:46:40.179Z,1.23
2023-02-26T18:49:23.024Z,1.35
2023-02-26T18:52:07.399Z,1.30
2023-02-26T18:54:50.196Z,1.70
2023-02-26T18:57:33.179Z,1.42
2023-02-26T19:00:16.130Z,1.15
2023-02-26T19:02:58.802Z,1.00
2023-02-26T19:05:41.548Z,1.27
2023-02-26T19:08:25.649Z,1.15
2023-02-26T19:11:08.342Z,1.17
2023-02-26T19:13:52.497Z,1.25
2023-02-26T19:16:38.193Z,1.10
2023-02-26T19:19:21.527Z,1.30
2023-02-26T19:22:04.163Z,1.52
2023-02-26T19:24:48.257Z,1.48
2023-02-26T19:27:30.903Z,1.42
2023-02-26T19:30:13.773Z,1.77
2023-02-26T19:32:57.795Z,1.48
2023-02-26T19:35:40.841Z,2.22
2023-02-26T19:38:24.071Z,2.63
2023-02-26T19:41:08.523Z,2.70
2023-02-26T19:43:52.757Z,2.45
2023-02-26T19:46:36.137Z,2.70
2023-02-26T19:49:18.900Z,2.70
2023-02-26T19:52:01.526Z,3.20
2023-02-26T19:54:44.463Z,3.70
2023-02-26T19:57:29.681Z,3.10
2023-02-26T20:00:14.226Z,2.65
2023-02-26T20:02:57.216Z,2.10
2023-02-26T20:05:40.213Z,2.00
2023-02-26T20:08:25.520Z,2.33
2023-02-26T20:11:08.931Z,2.55
2023-02-26T20:13:53.477Z,2.30
2023-02-26T20:16:36.511Z,2.40
2023-02-26T20:19:20.354Z,2.80
2023-02-26T20:22:03.088Z,2.78
2023-02-26T20:24:46.535Z,3.20
2023-02-26T20:27:29.484Z,3.08
2023-02-26T20:30:14.461Z,3.33
2023-02-26T20:32:57.450Z,3.53
2023-02-26T20:35:42.100Z,3.45
2023-02-26T20:38:24.987Z,3.33
2023-02-26T20:41:08.709Z,3.55
2023-02-26T20:43:51.400Z,3.38
2023-02-26T20:46:35.938Z,3.25
2023-02-26T20:49:20.005Z,3.30
2023-02-26T20:52:02.770Z,3.55
2023-02-26T20:54:45.815Z,3.60
2023-02-26T20:57:29.421Z,3.47
2023-02-26T21:00:15.321Z,3.70
2023-02-26T21:02:58.065Z,3.42
2023-02-26T21:05:42.737Z,3.75
2023-02-26T21:08:25.678Z,3.15
2023-02-26T21:11:09.913Z,3.20
2023-02-26T21:13:52.531Z,3.15
2023-02-26T21:16:35.388Z,3.45
2023-02-26T21:19:18.200Z,3.60
2023-02-26T21:22:02.387Z,3.40
2023-02-26T21:24:45.164Z,3.25
2023-02-26T21:27:27.800Z,3.30
2023-02-26T21:30:13.784Z,3.38
2023-02-26T21:32:56.859Z,3.55
2023-02-26T21:35:39.515Z,3.72
2023-02-26T21:38:23.650Z,3.10
2023-02-26T21:41:06.873Z,2.88
2023-02-26T21:43:49.546Z,3.42
2023-02-26T21:46:33.988Z,3.15
2023-02-26T21:49:16.608Z,2.92
2023-02-26T21:51:59.695Z,2.60
2023-02-26T21:54:43.871Z,2.70
2023-02-26T21:57:27.126Z,3.03
2023-02-26T22:00:11.617Z,2.90
2023-02-26T22:02:57.069Z,2.78
2023-02-26T22:05:39.701Z,2.95
2023-02-26T22:08:22.356Z,2.80
2023-02-26T22:11:06.589Z,3.05
2023-02-26T22:13:49.828Z,3.30
2023-02-26T22:16:32.515Z,2.75
2023-02-26T22:19:15.162Z,2.80
2023-02-26T22:21:57.771Z,2.28
2023-02-26T22:24:41.321Z,2.75
2023-02-26T22:27:25.333Z,2.50
2023-02-26T22:30:08.778Z,2.60
2023-02-26T22:32:51.370Z,2.80
2023-02-26T22:35:33.969Z,2.33
2023-02-26T22:38:16.578Z,2.80
2023-02-26T22:40:59.137Z,2.55
2023-02-26T22:43:43.367Z,2.50
2023-02-26T22:46:28.559Z,2.30
2023-02-26T22:49:11.264Z,2.53
2023-02-26T22:51:53.856Z,2.30
2023-02-26T22:54:37.697Z,2.30
2023-02-26T22:57:20.349Z,2.10
2023-02-26T23:00:08.414Z,2.10
2023-02-26T23:02:51.357Z,2.30
2023-02-26T23:05:34.025Z,2.25
2023-02-26T23:08:16.666Z,2.08
2023-02-26T23:10:59.864Z,2.00
2023-02-26T23:13:42.527Z,2.00
2023-02-26T23:16:26.510Z,1.80
2023-02-26T23:19:10.139Z,1.88
2023-02-26T23:21:52.774Z,1.80
2023-02-26T23:24:35.507Z,1.77
2023-02-26T23:27:18.122Z,2.08
2023-02-26T23:30:00.763Z,2.15
2023-02-26T23:32:44.785Z,2.13
2023-02-26T23:35:27.452Z,1.90
2023-02-26T23:38:10.259Z,1.92
2023-02-26T23:40:52.888Z,1.70
2023-02-26T23:43:35.563Z,1.80
2023-02-26T23:46:18.206Z,1.98
2023-02-26T23:49:02.228Z,1.83
2023-02-26T23:51:45.375Z,1.70
2023-02-26T23:54:27.956Z,1.80
2023-02-26T23:57:10.584Z,1.77
2023-02-26T23:59:53.218Z,1.58
